Time;durP1;ratioP1;P1;durP2;ratioP2;P2;SDS_P1;SDS_P2;PMS_P1;PMS_P2;Temp;Humidity;BMP_temperature;BMP_pressure;BME280_temperature;BME280_humidity;BME280_pressure;Samples;Min_cycle;Max_cycle;Signal;HPM_P1;HPM_P2
2021/10/26 00:00:52;;;;;;;8.33;7.67;;;11.50;99.90;;;;;;5027043;28;20605;-65
2021/10/26 00:03:18;;;;;;;8.47;7.67;;;11.50;99.90;;;;;;5031061;28;20258;-64
2021/10/26 00:05:43;;;;;;;10.07;8.20;;;11.50;99.90;;;;;;5031203;28;20214;-64
2021/10/26 00:08:09;;;;;;;8.57;7.87;;;11.50;99.90;;;;;;5031195;28;20172;-65
2021/10/26 00:10:35;;;;;;;9.10;8.40;;;11.50;99.90;;;;;;5030762;28;20168;-64
2021/10/26 00:13:01;;;;;;;9.10;8.30;;;11.50;99.90;;;;;;5031066;28;20520;-65
2021/10/26 00:15:26;;;;;;;8.33;7.67;;;11.50;99.90;;;;;;5031036;28;20203;-65
2021/10/26 00:17:53;;;;;;;8.63;7.93;;;11.50;99.90;;;;;;5031211;28;20171;-65
2021/10/26 00:20:19;;;;;;;8.90;8.20;;;11.50;99.90;;;;;;5030726;28;20180;-65
2021/10/26 00:22:44;;;;;;;8.27;7.67;;;11.50;99.90;;;;;;5031068;28;20175;-65
2021/10/26 00:25:10;;;;;;;8.57;7.90;;;11.50;99.90;;;;;;5030869;28;20206;-65
2021/10/26 00:27:36;;;;;;;8.53;7.93;;;11.50;99.90;;;;;;5030967;28;20168;-65
2021/10/26 00:30:02;;;;;;;8.70;8.00;;;11.50;99.90;;;;;;5030777;28;20199;-65
2021/10/26 00:32:28;;;;;;;8.17;7.57;;;11.50;99.90;;;;;;5030960;28;20536;-65
2021/10/26 00:34:54;;;;;;;8.57;7.77;;;11.50;99.90;;;;;;5030846;28;20176;-65
2021/10/26 00:37:19;;;;;;;8.43;7.77;;;11.50;99.90;;;;;;5030941;28;20207;-65
2021/10/26 00:39:45;;;;;;;8.33;7.60;;;11.50;99.90;;;;;;5034285;28;20229;-65
2021/10/26 00:42:11;;;;;;;8.90;8.07;;;11.50;99.90;;;;;;5034576;28;20210;-65
2021/10/26 00:44:38;;;;;;;8.30;7.67;;;11.50;99.90;;;;;;5034420;28;20203;-65
2021/10/26 00:47:03;;;;;;;8.90;8.07;;;11.50;99.90;;;;;;5034670;28;20271;-64
2021/10/26 00:49:29;;;;;;;8.80;8.00;;;11.50;99.90;;;;;;5034046;28;20603;-65
2021/10/26 00:51:55;;;;;;;8.07;7.43;;;11.50;99.90;;;;;;5034538;28;20251;-65
2021/10/26 00:54:26;;;;;;;7.73;7.23;;;11.50;99.90;;;;;;5033790;28;20199;-65
2021/10/26 00:56:52;;;;;;;9.20;8.50;;;11.50;99.90;;;;;;5033235;28;20192;-65
2021/10/26 00:59:17;;;;;;;8.93;8.33;;;11.50;99.90;;;;;;5030321;28;20531;-65
2021/10/26 01:01:43;;;;;;;8.20;7.60;;;11.40;99.90;;;;;;5013978;28;20172;-65
2021/10/26 01:04:09;;;;;;;8.73;8.03;;;11.40;99.90;;;;;;5014408;28;20286;-65
2021/10/26 01:06:36;;;;;;;8.63;7.80;;;11.40;99.90;;;;;;5014070;28;20237;-65
2021/10/26 01:09:03;;;;;;;7.93;7.37;;;11.40;99.90;;;;;;5014071;28;20238;-65
2021/10/26 01:11:30;;;;;;;8.13;7.63;;;11.40;99.90;;;;;;5014239;28;20176;-64
2021/10/26 01:13:57;;;;;;;8.20;7.60;;;11.40;99.90;;;;;;5014124;28;20353;-65
2021/10/26 01:16:22;;;;;;;8.33;7.63;;;11.30;99.90;;;;;;5014194;28;20251;-65
2021/10/26 01:18:49;;;;;;;8.63;8.10;;;11.30;99.90;;;;;;4996488;28;20172;-64
2021/10/26 01:21:16;;;;;;;8.47;7.87;;;11.30;99.90;;;;;;5013678;28;20168;-65
2021/10/26 01:23:41;;;;;;;9.10;8.13;;;11.30;99.90;;;;;;5013797;28;20176;-64
2021/10/26 01:26:07;;;;;;;8.40;7.80;;;11.30;99.90;;;;;;5013966;28;20187;-65
2021/10/26 01:28:33;;;;;;;8.70;8.00;;;11.30;99.90;;;;;;5014019;28;20607;-65
2021/10/26 01:30:59;;;;;;;9.70;8.60;;;11.30;99.90;;;;;;5013760;28;20203;-65
2021/10/26 01:33:25;;;;;;;9.00;8.20;;;11.30;99.90;;;;;;5013821;28;20192;-64
2021/10/26 01:35:51;;;;;;;8.60;8.00;;;11.30;99.90;;;;;;5013782;28;20250;-64
2021/10/26 01:38:16;;;;;;;9.53;8.70;;;11.30;99.90;;;;;;5014025;28;20207;-65
2021/10/26 01:40:42;;;;;;;9.63;8.97;;;11.40;99.90;;;;;;5013182;28;20231;-64
2021/10/26 01:43:08;;;;;;;9.63;8.87;;;11.40;99.90;;;;;;5013560;28;20191;-65
2021/10/26 01:45:33;;;;;;;9.00;8.30;;;11.40;99.90;;;;;;5013714;28;20298;-64
2021/10/26 01:47:59;;;;;;;9.83;8.87;;;11.40;99.90;;;;;;5013729;28;20165;-65
2021/10/26 01:50:24;;;;;;;10.83;8.57;;;11.40;99.90;;;;;;5012751;28;20634;-65
2021/10/26 01:52:50;;;;;;;9.53;8.47;;;11.40;99.90;;;;;;5013195;28;20169;-65
2021/10/26 01:55:18;;;;;;;9.40;8.50;;;11.40;99.90;;;;;;5013314;28;20172;-65
2021/10/26 01:57:45;;;;;;;8.87;8.13;;;11.30;99.90;;;;;;5013128;28;20172;-65
2021/10/26 02:00:13;;;;;;;9.47;8.60;;;11.40;99.90;;;;;;5023331;28;20179;-65
2021/10/26 02:02:39;;;;;;;9.23;8.40;;;11.40;99.90;;;;;;5032613;28;20233;-65
2021/10/26 02:05:06;;;;;;;8.87;8.17;;;11.40;99.90;;;;;;5032973;28;20274;-64
2021/10/26 02:07:32;;;;;;;10.00;9.00;;;11.40;99.90;;;;;;5032964;28;20179;-65
2021/10/26 02:09:58;;;;;;;9.43;8.60;;;11.40;99.90;;;;;;5032772;28;20220;-65
2021/10/26 02:12:24;;;;;;;9.37;8.77;;;11.40;99.90;;;;;;5033902;28;20175;-68
2021/10/26 02:14:50;;;;;;;11.33;10.37;;;11.40;99.90;;;;;;5034501;28;20181;-69
2021/10/26 02:17:16;;;;;;;9.47;8.63;;;11.40;99.90;;;;;;5016232;28;20200;-67
2021/10/26 02:19:42;;;;;;;9.63;8.60;;;11.40;99.90;;;;;;5034034;28;20186;-68
2021/10/26 02:22:07;;;;;;;9.57;8.67;;;11.40;99.90;;;;;;5034395;28;20344;-65
2021/10/26 02:24:33;;;;;;;9.67;8.87;;;11.50;99.90;;;;;;5016798;28;20610;-68
2021/10/26 02:26:59;;;;;;;9.90;9.00;;;11.40;99.90;;;;;;5034344;28;20187;-68
2021/10/26 02:29:25;;;;;;;9.67;8.87;;;11.50;99.90;;;;;;5033761;28;20176;-67
2021/10/26 02:31:52;;;;;;;9.57;8.67;;;11.50;99.90;;;;;;5033902;28;20210;-69
2021/10/26 02:34:18;;;;;;;9.77;8.87;;;11.50;99.90;;;;;;5034338;28;20186;-69
2021/10/26 02:36:45;;;;;;;12.80;11.70;;;11.60;99.90;;;;;;5033817;28;20211;-67
2021/10/26 02:39:12;;;;;;;9.87;8.90;;;11.60;99.90;;;;;;5033907;28;20602;-67
2021/10/26 02:41:38;;;;;;;9.50;8.70;;;11.60;99.90;;;;;;5034001;28;20210;-66
2021/10/26 02:44:04;;;;;;;9.53;8.73;;;11.60;99.90;;;;;;5033659;28;20223;-69
2021/10/26 02:46:30;;;;;;;10.70;9.70;;;11.60;99.90;;;;;;5033603;28;20195;-69
2021/10/26 02:48:55;;;;;;;10.63;9.67;;;11.60;99.90;;;;;;5033502;28;20241;-69
2021/10/26 02:51:21;;;;;;;10.00;9.20;;;11.60;99.90;;;;;;5033439;28;20314;-66
2021/10/26 02:53:47;;;;;;;10.70;9.70;;;11.60;99.90;;;;;;5016154;28;20198;-66
2021/10/26 02:56:13;;;;;;;9.50;8.70;;;11.60;99.90;;;;;;5033712;28;20241;-69
2021/10/26 02:58:39;;;;;;;12.63;9.10;;;11.60;99.90;;;;;;5033215;28;20167;-70
2021/10/26 03:01:05;;;;;;;11.03;9.37;;;11.60;99.90;;;;;;5014858;28;20172;-67
2021/10/26 03:03:31;;;;;;;10.27;9.47;;;11.60;99.90;;;;;;5013149;28;20637;-68
2021/10/26 03:05:56;;;;;;;10.03;9.03;;;11.60;99.90;;;;;;5013620;28;20258;-67
2021/10/26 03:08:22;;;;;;;10.23;9.20;;;11.60;99.90;;;;;;5013620;28;20186;-69
2021/10/26 03:10:48;;;;;;;10.87;9.20;;;11.60;99.90;;;;;;5013500;28;20262;-69
2021/10/26 03:13:14;;;;;;;9.77;8.87;;;11.60;99.90;;;;;;5013547;28;20211;-67
2021/10/26 03:15:40;;;;;;;10.20;9.20;;;11.50;99.90;;;;;;4995822;28;20211;-69
2021/10/26 03:18:06;;;;;;;9.37;8.50;;;11.50;99.90;;;;;;5013100;28;20192;-70
2021/10/26 03:20:32;;;;;;;9.83;9.07;;;11.60;99.90;;;;;;4995928;28;20604;-67
2021/10/26 03:22:58;;;;;;;11.20;9.53;;;11.50;99.90;;;;;;5013351;28;20306;-70
2021/10/26 03:25:24;;;;;;;10.87;9.97;;;11.60;99.90;;;;;;5013739;28;20302;-70
2021/10/26 03:27:50;;;;;;;10.40;9.43;;;11.50;99.90;;;;;;4995922;28;20259;-68
2021/10/26 03:30:17;;;;;;;9.80;8.97;;;11.50;99.90;;;;;;5013099;28;20172;-68
2021/10/26 03:32:42;;;;;;;11.03;10.13;;;11.60;99.90;;;;;;5013281;28;20168;-66
2021/10/26 03:35:09;;;;;;;10.23;9.43;;;11.60;99.90;;;;;;5013036;28;20598;-66
2021/10/26 03:37:36;;;;;;;10.83;9.83;;;11.60;99.90;;;;;;5014100;28;20180;-69
2021/10/26 03:40:03;;;;;;;9.90;9.00;;;11.60;99.90;;;;;;5013104;28;20241;-70
2021/10/26 03:42:29;;;;;;;9.63;8.83;;;11.60;99.90;;;;;;5012979;28;20269;-70
2021/10/26 03:44:54;;;;;;;9.40;8.50;;;11.60;99.90;;;;;;5013262;28;20255;-68
2021/10/26 03:47:20;;;;;;;9.77;8.80;;;11.60;99.90;;;;;;5013234;28;20203;-69
2021/10/26 03:49:46;;;;;;;12.07;9.87;;;11.50;99.90;;;;;;5012998;28;20183;-68
2021/10/26 03:52:12;;;;;;;9.53;8.70;;;11.40;99.90;;;;;;5012340;28;20186;-70
2021/10/26 03:54:38;;;;;;;11.27;9.50;;;11.40;99.90;;;;;;5012707;28;20243;-64
2021/10/26 03:57:09;;;;;;;9.60;8.80;;;11.30;99.90;;;;;;5011750;28;20204;-64
2021/10/26 03:59:35;;;;;;;10.83;9.00;;;11.20;99.90;;;;;;4998999;28;20576;-64
2021/10/26 04:02:08;;;;;;;10.63;9.70;;;11.20;99.90;;;;;;5031348;28;20233;-64
2021/10/26 04:04:33;;;;;;;11.50;9.50;;;11.10;99.90;;;;;;5031113;28;20254;-64
2021/10/26 04:07:01;;;;;;;10.93;9.83;;;11.10;99.90;;;;;;5031285;28;20203;-64
2021/10/26 04:09:42;;;;;;;9.60;8.53;;;11.10;99.90;;;;;;5030804;28;20644;-64
2021/10/26 04:15:03;;;;;;;8.77;7.87;;;11.00;99.90;;;;;;5022060;28;20187;-64
2021/10/26 04:17:28;;;;;;;10.30;8.60;;;11.00;99.90;;;;;;5035075;28;20195;-64
2021/10/26 04:19:57;;;;;;;10.93;9.93;;;10.90;99.90;;;;;;5034907;28;20544;-64
2021/10/26 04:22:23;;;;;;;11.40;9.10;;;10.90;99.90;;;;;;5035356;28;20194;-64
2021/10/26 04:24:49;;;;;;;10.17;9.10;;;10.90;99.90;;;;;;5034644;28;20241;-64
2021/10/26 04:27:15;;;;;;;9.30;8.47;;;11.00;99.90;;;;;;5035214;28;20245;-64
2021/10/26 04:29:42;;;;;;;10.63;9.50;;;11.10;99.90;;;;;;5034758;28;20203;-64
2021/10/26 04:32:09;;;;;;;12.87;10.47;;;11.10;99.90;;;;;;5034888;28;20538;-64
2021/10/26 04:34:36;;;;;;;15.07;9.90;;;11.30;99.90;;;;;;5034877;28;20176;-64
2021/10/26 04:37:02;;;;;;;10.27;9.27;;;11.30;99.90;;;;;;5034927;28;20226;-64
2021/10/26 04:39:28;;;;;;;12.83;10.77;;;11.30;99.90;;;;;;5014093;28;20191;-64
2021/10/26 04:41:54;;;;;;;10.93;9.77;;;11.40;99.90;;;;;;5014149;28;20541;-64
2021/10/26 04:44:20;;;;;;;10.67;9.57;;;11.40;99.90;;;;;;5014796;28;20744;-64
2021/10/26 04:46:45;;;;;;;10.90;9.80;;;11.40;99.90;;;;;;5013075;28;20689;-64
2021/10/26 04:49:11;;;;;;;10.33;9.43;;;11.30;99.90;;;;;;5014374;28;20192;-65
2021/10/26 04:51:36;;;;;;;11.43;10.13;;;11.30;99.90;;;;;;5014369;28;20184;-64
2021/10/26 04:54:02;;;;;;;11.40;9.60;;;11.40;99.90;;;;;;5014722;28;20706;-64
2021/10/26 04:56:28;;;;;;;11.40;9.43;;;11.40;99.90;;;;;;5014294;28;20200;-64
2021/10/26 04:58:54;;;;;;;9.87;8.90;;;11.40;99.90;;;;;;5014546;28;20184;-65
2021/10/26 05:01:20;;;;;;;10.17;9.20;;;11.50;99.90;;;;;;5013628;28;20242;-64
2021/10/26 05:03:46;;;;;;;9.73;8.63;;;11.40;99.90;;;;;;5013850;28;20176;-64
2021/10/26 05:06:11;;;;;;;9.77;8.90;;;11.30;99.90;;;;;;5014094;28;20269;-64
2021/10/26 05:08:37;;;;;;;8.93;8.10;;;11.30;99.90;;;;;;5013267;28;20184;-65
2021/10/26 05:11:02;;;;;;;9.50;8.60;;;11.20;99.90;;;;;;5013770;28;20184;-64
2021/10/26 05:13:30;;;;;;;9.30;8.50;;;11.10;99.90;;;;;;5014074;28;20619;-64
2021/10/26 05:15:57;;;;;;;9.40;8.47;;;11.10;99.90;;;;;;5013904;28;20671;-65
2021/10/26 05:18:24;;;;;;;8.73;7.97;;;11.00;99.90;;;;;;5013793;28;20176;-64
2021/10/26 05:20:51;;;;;;;8.37;7.67;;;11.00;99.90;;;;;;5013712;28;20180;-64
2021/10/26 05:23:18;;;;;;;8.80;8.07;;;11.10;99.90;;;;;;5013956;28;20180;-64
2021/10/26 05:25:50;;;;;;;9.00;8.17;;;11.00;99.90;;;;;;5012741;28;20224;-64
2021/10/26 05:28:16;;;;;;;8.30;7.70;;;11.00;99.90;;;;;;5013782;28;20463;-64
2021/10/26 05:30:41;;;;;;;9.20;8.40;;;11.00;99.90;;;;;;5013661;28;20204;-64
2021/10/26 05:33:08;;;;;;;11.73;8.10;;;10.90;99.90;;;;;;5013637;28;20273;-64
2021/10/26 05:35:34;;;;;;;9.20;8.30;;;10.90;99.90;;;;;;5013589;28;20211;-64
2021/10/26 05:38:00;;;;;;;8.90;8.20;;;10.90;99.90;;;;;;5013561;28;20572;-64
2021/10/26 05:40:26;;;;;;;11.83;8.67;;;10.90;99.90;;;;;;5013278;28;20210;-64
2021/10/26 05:42:51;;;;;;;9.00;8.03;;;10.90;99.90;;;;;;5013379;28;20180;-64
2021/10/26 05:45:17;;;;;;;9.17;8.37;;;10.90;99.90;;;;;;5013281;28;20208;-64
2021/10/26 05:47:44;;;;;;;9.00;8.17;;;10.90;99.90;;;;;;5013023;28;20199;-64
2021/10/26 05:50:09;;;;;;;13.07;8.80;;;10.90;99.90;;;;;;5011109;28;20227;-64
2021/10/26 05:52:35;;;;;;;10.80;8.90;;;10.90;99.90;;;;;;5012753;28;20172;-64
2021/10/26 05:55:01;;;;;;;10.77;9.40;;;10.90;99.90;;;;;;5013183;28;20722;-64
2021/10/26 05:57:26;;;;;;;9.57;8.43;;;10.90;99.90;;;;;;5013139;28;20290;-64
2021/10/26 05:59:52;;;;;;;10.90;8.23;;;10.90;99.90;;;;;;5012427;28;20180;-64
2021/10/26 06:02:18;;;;;;;9.47;8.57;;;10.90;99.90;;;;;;5013261;28;20176;-64
2021/10/26 06:04:43;;;;;;;13.03;9.43;;;10.90;99.90;;;;;;5012829;28;20681;-64
2021/10/26 06:07:09;;;;;;;10.03;9.03;;;10.90;99.90;;;;;;5013390;28;20516;-64
2021/10/26 06:09:35;;;;;;;12.37;8.90;;;11.00;99.90;;;;;;5012583;28;20176;-64
2021/10/26 06:12:03;;;;;;;10.40;9.30;;;11.10;99.90;;;;;;5012832;28;20297;-64
2021/10/26 06:14:29;;;;;;;9.60;8.73;;;11.10;99.90;;;;;;5013187;28;20173;-64
2021/10/26 06:16:55;;;;;;;10.33;9.30;;;11.20;99.90;;;;;;5012851;28;20253;-64
2021/10/26 06:19:21;;;;;;;9.50;8.60;;;11.20;99.90;;;;;;5012811;28;20259;-64
2021/10/26 06:21:48;;;;;;;9.87;8.57;;;11.20;99.90;;;;;;5012014;28;20191;-65
2021/10/26 06:24:14;;;;;;;9.73;8.73;;;11.20;99.90;;;;;;4992546;28;20560;-64
2021/10/26 06:26:39;;;;;;;9.17;8.30;;;11.20;99.90;;;;;;4998788;28;20564;-64
2021/10/26 06:29:06;;;;;;;9.70;8.80;;;11.20;99.90;;;;;;5012779;28;20161;-64
2021/10/26 06:31:32;;;;;;;9.60;8.67;;;11.20;99.90;;;;;;5012223;28;20180;-64
2021/10/26 06:33:58;;;;;;;9.77;8.93;;;11.20;99.90;;;;;;5012506;28;20264;-64
2021/10/26 06:36:24;;;;;;;9.60;8.90;;;11.30;99.90;;;;;;4994454;28;20240;-64
2021/10/26 06:38:49;;;;;;;9.47;8.73;;;11.30;99.90;;;;;;5012460;28;20211;-64
2021/10/26 06:41:15;;;;;;;8.40;7.80;;;11.30;99.90;;;;;;5011898;28;20180;-64
2021/10/26 06:43:41;;;;;;;10.27;8.30;;;11.30;99.90;;;;;;4994412;28;20617;-64
2021/10/26 06:46:06;;;;;;;9.57;8.33;;;11.30;99.90;;;;;;5011797;28;20204;-64
2021/10/26 06:48:32;;;;;;;8.93;8.13;;;11.30;99.90;;;;;;5011744;28;20168;-64
2021/10/26 06:50:58;;;;;;;8.97;8.17;;;11.30;99.90;;;;;;5011130;28;20674;-64
2021/10/26 06:53:24;;;;;;;10.80;8.37;;;11.30;99.90;;;;;;5012233;28;20184;-64
2021/10/26 06:55:51;;;;;;;8.73;7.90;;;11.30;99.90;;;;;;5011897;28;20206;-64
2021/10/26 06:58:16;;;;;;;9.57;7.43;;;11.30;99.90;;;;;;5012173;28;20567;-64
2021/10/26 07:00:43;;;;;;;9.10;8.30;;;11.30;99.90;;;;;;5011181;28;20187;-64
2021/10/26 07:03:09;;;;;;;8.30;7.37;;;11.40;99.90;;;;;;5011680;28;20178;-64
2021/10/26 07:05:36;;;;;;;9.40;8.50;;;11.40;99.90;;;;;;5011627;28;20203;-64
2021/10/26 07:08:02;;;;;;;8.07;7.47;;;11.40;99.90;;;;;;5011556;28;20637;-64
2021/10/26 07:10:27;;;;;;;10.63;8.87;;;11.40;99.90;;;;;;5011441;28;20179;-64
2021/10/26 07:12:54;;;;;;;9.10;8.50;;;11.40;99.90;;;;;;5011706;28;20172;-64
2021/10/26 07:15:20;;;;;;;8.33;7.73;;;11.50;99.90;;;;;;5011927;28;20215;-64
2021/10/26 07:17:46;;;;;;;8.07;7.37;;;11.50;99.90;;;;;;5010996;28;20180;-65
2021/10/26 07:20:14;;;;;;;9.10;8.37;;;11.60;99.90;;;;;;5011405;28;20179;-64
2021/10/26 07:22:41;;;;;;;7.97;7.47;;;11.80;99.90;;;;;;5011211;28;20187;-64
2021/10/26 07:25:09;;;;;;;9.03;7.83;;;11.90;99.90;;;;;;5011245;28;20199;-64
2021/10/26 07:27:36;;;;;;;7.87;7.03;;;12.00;99.90;;;;;;5011056;28;20180;-64
2021/10/26 07:30:08;;;;;;;8.87;8.20;;;12.10;99.90;;;;;;5011062;28;20175;-64
2021/10/26 07:32:34;;;;;;;9.00;8.10;;;12.30;99.90;;;;;;5010615;28;20179;-64
2021/10/26 07:35:00;;;;;;;8.33;7.57;;;12.30;99.90;;;;;;5022857;28;20172;-64
2021/10/26 07:37:42;;;;;;;7.50;6.97;;;12.40;99.90;;;;;;5029280;28;20191;-64
2021/10/26 07:40:09;;;;;;;7.43;6.87;;;12.30;99.90;;;;;;5010212;28;20179;-64
2021/10/26 07:42:35;;;;;;;8.43;7.93;;;12.40;99.90;;;;;;5011220;28;20218;-64
2021/10/26 07:45:00;;;;;;;7.43;6.97;;;12.40;99.90;;;;;;5019658;28;20630;-64
2021/10/26 07:47:26;;;;;;;9.17;8.33;;;12.50;99.90;;;;;;5025655;28;20238;-64
2021/10/26 07:49:55;;;;;;;8.90;8.00;;;12.50;99.90;;;;;;5011429;28;20530;-64
2021/10/26 07:52:22;;;;;;;7.57;6.97;;;12.50;99.90;;;;;;5011293;28;20168;-64
2021/10/26 07:54:53;;;;;;;7.50;6.80;;;12.60;99.90;;;;;;5011516;28;20172;-64
2021/10/26 07:57:23;;;;;;;7.97;7.30;;;12.60;99.90;;;;;;5010393;28;20582;-64
2021/10/26 07:59:50;;;;;;;8.47;7.67;;;12.70;99.90;;;;;;5028621;28;20175;-64
2021/10/26 08:02:16;;;;;;;7.37;6.80;;;12.70;99.90;;;;;;5030896;28;20171;-64
2021/10/26 08:04:43;;;;;;;8.80;7.00;;;12.70;99.90;;;;;;5011316;28;20561;-64
2021/10/26 08:07:09;;;;;;;7.37;6.87;;;12.80;99.90;;;;;;5011211;28;20286;-64
2021/10/26 08:09:35;;;;;;;8.90;7.17;;;12.90;99.90;;;;;;5011055;28;20192;-64
2021/10/26 08:12:01;;;;;;;6.77;6.17;;;13.00;99.90;;;;;;5011163;28;20238;-65
2021/10/26 08:14:27;;;;;;;7.37;6.80;;;13.40;99.90;;;;;;5011767;28;20638;-64
2021/10/26 08:16:53;;;;;;;7.20;6.60;;;13.60;99.90;;;;;;5010594;28;20207;-64
2021/10/26 08:19:19;;;;;;;7.13;6.53;;;13.80;99.90;;;;;;5011320;28;20176;-64
2021/10/26 08:21:46;;;;;;;6.60;6.00;;;13.90;99.90;;;;;;5010397;28;20183;-64
2021/10/26 08:24:12;;;;;;;6.67;6.07;;;14.10;99.90;;;;;;4993497;28;20200;-64
2021/10/26 08:26:42;;;;;;;6.77;6.17;;;14.50;99.90;;;;;;5010475;28;20326;-64
2021/10/26 08:29:54;;;;;;;6.10;5.60;;;14.90;99.90;;;;;;5011138;28;20191;-66
2021/10/26 08:36:56;;;;;;;7.07;6.00;;;15.40;99.90;;;;;;5009644;28;20718;-64
2021/10/26 08:39:22;;;;;;;6.10;5.70;;;15.70;99.90;;;;;;5010208;28;20183;-64
2021/10/26 08:41:49;;;;;;;6.47;5.80;;;15.90;99.90;;;;;;5010791;28;20189;-65
2021/10/26 08:44:17;;;;;;;6.53;6.00;;;16.20;99.90;;;;;;5011036;28;20207;-66
2021/10/26 08:46:44;;;;;;;5.27;4.77;;;16.50;99.90;;;;;;5010721;28;20196;-66
2021/10/26 08:49:13;;;;;;;5.50;5.03;;;16.90;99.90;;;;;;5010885;28;20179;-64
2021/10/26 08:51:44;;;;;;;5.77;5.37;;;17.30;99.90;;;;;;5010673;28;20187;-64
2021/10/26 08:54:11;;;;;;;5.97;5.57;;;17.20;99.90;;;;;;5011009;28;20270;-66
2021/10/26 08:56:37;;;;;;;5.47;5.17;;;17.10;99.90;;;;;;5010705;28;20224;-65
2021/10/26 08:59:03;;;;;;;5.50;4.97;;;17.50;99.90;;;;;;5010843;28;20176;-64
2021/10/26 09:01:29;;;;;;;5.63;4.80;;;17.70;99.90;;;;;;5014061;28;20210;-64
2021/10/26 09:04:09;;;;;;;4.83;4.50;;;17.80;99.90;;;;;;5014268;28;20191;-64
2021/10/26 09:06:53;;;;;;;4.70;4.40;;;18.20;99.90;;;;;;5014261;28;20282;-64
2021/10/26 09:09:21;;;;;;;5.10;4.70;;;18.50;99.90;;;;;;5012760;28;20187;-65
2021/10/26 09:17:28;;;;;;;5.37;5.07;;;18.80;99.90;;;;;;5013359;28;20218;-64
2021/10/26 09:19:55;;;;;;;5.30;4.90;;;19.10;99.90;;;;;;5013851;28;20215;-64
2021/10/26 09:22:22;;;;;;;5.10;4.70;;;19.40;99.90;;;;;;5012757;28;20210;-64
2021/10/26 09:24:59;;;;;;;6.33;4.80;;;19.00;99.90;;;;;;5013508;28;20200;-64
2021/10/26 09:27:27;;;;;;;6.83;6.23;;;18.70;99.90;;;;;;4994958;28;20268;-64
2021/10/26 09:29:57;;;;;;;6.87;5.27;;;18.50;99.90;;;;;;5013904;28;20180;-64
2021/10/26 09:32:32;;;;;;;5.37;4.77;;;18.60;99.90;;;;;;5013366;28;20275;-64
2021/10/26 09:35:00;;;;;;;4.77;4.40;;;18.80;99.90;;;;;;5013932;28;20176;-64
2021/10/26 09:39:59;;;;;;;5.30;4.90;;;19.00;99.90;;;;;;5071760;28;20218;-67
2021/10/26 09:42:25;;;;;;;5.47;4.83;;;19.00;99.90;;;;;;5073267;28;20174;-66
2021/10/26 09:44:55;;;;;;;4.60;4.40;;;19.30;99.90;;;;;;5073530;28;20224;-66
2021/10/26 09:47:24;;;;;;;5.10;4.77;;;19.30;99.90;;;;;;5078582;28;20193;-66
2021/10/26 09:49:59;;;;;;;5.27;4.97;;;19.20;99.90;;;;;;5093194;28;20173;-66
2021/10/26 09:52:28;;;;;;;6.27;4.70;;;19.30;99.90;;;;;;5086750;28;20162;-66
2021/10/26 09:55:18;;;;;;;5.17;4.67;;;19.80;99.90;;;;;;5073383;28;20204;-64
2021/10/26 09:57:58;;;;;;;4.53;4.23;;;20.30;99.90;;;;;;5079994;28;20254;-66
2021/10/26 10:00:33;;;;;;;5.23;4.73;;;20.30;99.90;;;;;;5087729;28;20181;-66
2021/10/26 10:03:13;;;;;;;5.40;5.00;;;20.50;99.90;;;;;;5073262;28;20235;-66
2021/10/26 10:05:52;;;;;;;5.60;4.40;;;20.20;99.90;;;;;;5078085;28;20209;-67
2021/10/26 10:08:20;;;;;;;5.10;4.80;;;19.80;99.90;;;;;;5085891;28;20639;-66
2021/10/26 10:10:47;;;;;;;4.97;4.57;;;19.70;99.90;;;;;;5071231;28;20257;-65
2021/10/26 10:13:13;;;;;;;5.03;4.73;;;19.40;99.90;;;;;;5078061;28;20173;-65
2021/10/26 10:15:43;;;;;;;5.80;5.30;;;19.00;99.90;;;;;;5092917;28;20263;-66
2021/10/26 10:18:10;;;;;;;5.10;4.70;;;18.70;99.90;;;;;;5088715;28;20188;-66
2021/10/26 10:20:36;;;;;;;5.30;4.90;;;18.50;99.90;;;;;;5072363;28;20180;-66
2021/10/26 10:23:02;;;;;;;5.27;4.87;;;18.50;99.90;;;;;;5073881;28;20269;-66
2021/10/26 10:25:30;;;;;;;5.13;4.83;;;18.50;99.90;;;;;;5092678;28;20597;-66
2021/10/26 10:27:57;;;;;;;5.70;5.30;;;18.90;99.90;;;;;;5091665;28;20173;-66
2021/10/26 10:30:22;;;;;;;5.80;5.20;;;19.20;99.90;;;;;;5072439;28;20635;-66
2021/10/26 10:32:48;;;;;;;5.03;4.63;;;19.20;99.90;;;;;;5073177;28;20185;-65
2021/10/26 10:35:16;;;;;;;6.13;5.53;;;18.80;99.90;;;;;;5071892;28;20768;-66
2021/10/26 10:37:46;;;;;;;5.67;5.27;;;18.70;99.90;;;;;;5071751;28;20220;-66
2021/10/26 10:40:12;;;;;;;4.63;4.23;;;18.40;99.90;;;;;;5091835;28;20189;-66
2021/10/26 10:42:48;;;;;;;5.30;4.90;;;18.30;99.90;;;;;;5091975;28;20182;-66
2021/10/26 10:45:34;;;;;;;5.43;5.13;;;18.50;99.90;;;;;;5052190;28;20206;-65
2021/10/26 10:48:02;;;;;;;4.93;4.60;;;18.50;99.90;;;;;;5054695;28;20647;-66
2021/10/26 10:50:38;;;;;;;5.27;4.87;;;18.70;99.90;;;;;;5091740;28;20170;-66
2021/10/26 10:53:15;;;;;;;4.53;4.23;;;19.20;99.90;;;;;;5089412;28;20165;-66
2021/10/26 10:55:52;;;;;;;5.27;4.87;;;19.70;99.90;;;;;;5091820;28;20419;-66
2021/10/26 10:58:40;;;;;;;5.07;4.67;;;19.80;99.90;;;;;;5052004;28;20264;-66
2021/10/26 11:01:27;;;;;;;5.00;4.70;;;19.90;99.90;;;;;;5055963;28;20195;-66
2021/10/26 11:03:54;;;;;;;5.23;4.70;;;19.70;99.90;;;;;;5092080;28;20201;-66
2021/10/26 11:06:41;;;;;;;4.67;4.37;;;19.90;99.90;;;;;;5088464;28;20189;-66
2021/10/26 11:09:29;;;;;;;4.63;4.33;;;20.20;99.90;;;;;;5071618;28;20689;-66
2021/10/26 11:12:06;;;;;;;4.80;4.40;;;20.60;99.90;;;;;;5078760;28;20268;-66
2021/10/26 11:15:00;;;;;;;5.53;4.87;;;20.70;99.90;;;;;;5092158;28;20526;-65
2021/10/26 11:17:35;;;;;;;5.47;5.07;;;20.70;99.90;;;;;;5072211;28;20263;-65
2021/10/26 11:20:07;;;;;;;4.80;4.50;;;20.50;99.90;;;;;;5070289;28;20185;-66
2021/10/26 11:22:52;;;;;;;4.90;4.60;;;20.20;99.90;;;;;;5089307;28;20205;-66
2021/10/26 11:25:27;;;;;;;5.77;4.20;;;19.70;99.90;;;;;;5091385;28;20254;-65
2021/10/26 11:27:54;;;;;;;4.90;4.60;;;19.40;99.90;;;;;;5071551;28;20656;-66
2021/10/26 11:30:29;;;;;;;4.80;4.50;;;18.70;99.90;;;;;;5070948;28;20169;-66
2021/10/26 11:33:10;;;;;;;4.70;4.50;;;18.30;99.90;;;;;;5051662;28;20170;-66
2021/10/26 11:35:56;;;;;;;5.23;4.90;;;18.20;99.90;;;;;;5054062;28;20246;-65
2021/10/26 11:38:27;;;;;;;5.00;4.43;;;18.30;99.90;;;;;;5081168;28;20530;-66
2021/10/26 11:40:57;;;;;;;5.07;4.70;;;18.30;99.90;;;;;;5070818;28;20177;-66
2021/10/26 11:43:27;;;;;;;4.67;4.37;;;18.20;99.90;;;;;;5073400;28;21776;-66
2021/10/26 11:46:01;;;;;;;4.87;4.53;;;18.30;99.90;;;;;;5091344;28;20205;-66
2021/10/26 11:49:04;;;;;;;4.83;4.43;;;18.70;99.90;;;;;;5088272;28;20165;-65
2021/10/26 11:51:41;;;;;;;5.20;4.80;;;19.20;99.90;;;;;;5039165;28;20205;-66
2021/10/26 11:54:24;;;;;;;4.90;4.60;;;19.30;99.90;;;;;;5076852;28;20166;-66
2021/10/26 11:56:54;;;;;;;5.50;5.10;;;19.60;99.90;;;;;;5090243;28;20557;-67
2021/10/26 11:59:22;;;;;;;5.00;4.60;;;19.70;99.90;;;;;;5082754;28;20178;-66
2021/10/26 12:01:49;;;;;;;4.80;4.50;;;19.10;99.90;;;;;;5071430;28;20633;-65
2021/10/26 12:04:31;;;;;;;6.03;4.57;;;19.10;99.90;;;;;;5077613;28;20190;-66
2021/10/26 12:07:00;;;;;;;5.23;4.73;;;19.10;99.90;;;;;;5091387;28;20189;-66
2021/10/26 12:09:28;;;;;;;6.07;4.50;;;19.20;99.90;;;;;;5083176;28;20635;-66
2021/10/26 12:11:57;;;;;;;5.40;5.00;;;19.50;99.90;;;;;;5072079;28;20174;-65
2021/10/26 12:14:36;;;;;;;4.70;4.40;;;20.00;99.90;;;;;;5075742;28;20399;-65
2021/10/26 12:17:20;;;;;;;4.47;4.17;;;20.30;99.90;;;;;;5085988;28;20194;-65
2021/10/26 12:19:57;;;;;;;5.90;5.60;;;20.30;99.90;;;;;;5070657;28;20165;-66
2021/10/26 12:22:32;;;;;;;6.03;4.50;;;20.20;99.90;;;;;;5078128;28;20749;-66
2021/10/26 12:25:00;;;;;;;4.87;4.57;;;20.20;99.90;;;;;;5091040;28;20197;-66
2021/10/26 12:27:35;;;;;;;5.50;5.07;;;20.40;99.90;;;;;;5083706;28;20286;-65
2021/10/26 12:30:27;;;;;;;4.83;4.53;;;20.30;99.90;;;;;;5070810;28;20212;-66
2021/10/26 12:33:08;;;;;;;4.67;4.37;;;20.20;99.90;;;;;;5080436;28;20170;-66
2021/10/26 12:35:56;;;;;;;5.00;4.60;;;20.00;99.90;;;;;;5094659;28;20624;-66
2021/10/26 12:38:27;;;;;;;4.60;4.30;;;19.80;99.90;;;;;;5081179;28;20189;-66
2021/10/26 12:41:17;;;;;;;4.97;4.67;;;19.90;99.90;;;;;;5074342;28;20202;-66
2021/10/26 12:44:01;;;;;;;6.93;5.20;;;20.10;99.90;;;;;;5081367;28;20200;-66
2021/10/26 12:46:27;;;;;;;7.40;4.93;;;20.00;99.90;;;;;;5094675;28;20314;-66
2021/10/26 12:49:12;;;;;;;4.80;4.40;;;19.60;99.90;;;;;;5077812;28;20698;-65
2021/10/26 12:51:38;;;;;;;4.77;4.47;;;19.60;99.90;;;;;;5075480;28;20217;-65
2021/10/26 12:54:12;;;;;;;4.70;4.30;;;19.80;99.90;;;;;;5076843;28;20610;-66
2021/10/26 12:56:48;;;;;;;4.87;4.37;;;20.10;99.90;;;;;;5074231;28;20223;-65
2021/10/26 12:59:16;;;;;;;4.83;4.43;;;20.20;99.90;;;;;;5094124;28;20173;-66
2021/10/26 13:01:42;;;;;;;5.27;4.87;;;20.20;99.90;;;;;;5079271;28;20170;-66
2021/10/26 13:04:15;;;;;;;4.57;4.27;;;20.20;99.90;;;;;;5073930;28;20170;-65
2021/10/26 13:06:40;;;;;;;6.30;5.27;;;20.00;99.90;;;;;;5087585;28;20198;-65
2021/10/26 13:09:19;;;;;;;5.10;4.70;;;19.60;99.90;;;;;;5093808;28;20199;-65